createdAt,value
2023-01-02T00:01:08.003Z,98880.22
2023-01-02T00:03:35.130Z,98877.50
2023-01-02T00:06:03.930Z,98877.69
2023-01-02T00:08:30.900Z,98876.53
2023-01-02T00:10:57.762Z,98882.75
2023-01-02T00:13:24.885Z,98874.91
2023-01-02T00:15:53.332Z,98878.94
2023-01-02T00:18:20.088Z,98869.28
2023-01-02T00:20:46.830Z,98866.94
2023-01-02T00:23:13.546Z,98866.16
2023-01-02T00:25:40.431Z,98857.13
2023-01-02T00:28:07.238Z,98866.34
2023-01-02T00:30:38.207Z,98861.91
2023-01-02T00:33:06.579Z,98862.69
2023-01-02T00:35:33.600Z,98848.34
2023-01-02T00:38:00.278Z,98857.00
2023-01-02T00:40:27.063Z,98864.81
2023-01-02T00:42:53.931Z,98853.97
2023-01-02T00:45:20.691Z,98855.06
2023-01-02T00:47:47.477Z,98853.47
2023-01-02T00:50:14.253Z,98855.16
2023-01-02T00:52:41.013Z,98850.56
2023-01-02T00:55:08.169Z,98857.00
2023-01-02T00:57:34.954Z,98859.63
2023-01-02T01:00:06.466Z,98853.53
2023-01-02T01:02:33.281Z,98854.25
2023-01-02T01:05:00.184Z,98863.91
2023-01-02T01:07:29.098Z,98860.69
2023-01-02T01:09:55.845Z,98839.25
2023-01-02T01:12:22.659Z,98843.47
2023-01-02T01:14:49.433Z,98837.63
2023-01-02T01:17:16.201Z,98840.63
2023-01-02T01:19:43.001Z,98834.69
2023-01-02T01:22:09.821Z,98847.84
2023-01-02T01:24:36.589Z,98850.75
2023-01-02T01:27:03.421Z,98852.47
2023-01-02T01:29:30.238Z,98837.72
2023-01-02T01:31:57.001Z,98839.94
2023-01-02T01:34:23.835Z,98842.66
2023-01-02T01:36:50.697Z,98843.69
2023-01-02T01:39:17.491Z,98856.34
2023-01-02T01:41:44.225Z,98852.91
2023-01-02T01:44:45.234Z,98848.41
2023-01-02T01:47:37.387Z,98844.97
2023-01-02T01:50:12.700Z,98839.13
2023-01-02T01:52:44.898Z,98838.25
2023-01-02T01:55:43.295Z,98846.06
2023-01-02T01:58:27.905Z,98830.59
2023-01-02T02:00:56.134Z,98831.41
2023-01-02T02:03:28.793Z,98825.28
2023-01-02T02:05:57.822Z,98833.13
2023-01-02T02:08:36.494Z,98820.81
2023-01-02T02:11:03.681Z,98821.59
2023-01-02T02:13:32.281Z,98818.31
2023-01-02T02:16:17.430Z,98827.22
2023-01-02T02:19:18.175Z,98819.06
2023-01-02T02:22:01.587Z,98819.81
2023-01-02T02:24:43.759Z,98818.06
2023-01-02T02:27:44.916Z,98816.19
2023-01-02T02:30:11.795Z,98811.03
2023-01-02T02:32:50.391Z,98808.44
2023-01-02T02:35:26.269Z,98805.78
2023-01-02T02:38:03.323Z,98808.50
2023-01-02T02:41:02.076Z,98803.06
2023-01-02T02:43:34.855Z,98805.97
2023-01-02T02:46:19.369Z,98793.19
2023-01-02T02:49:05.359Z,98794.59
2023-01-02T02:51:37.650Z,98797.94
2023-01-02T02:54:31.032Z,98799.84
2023-01-02T02:57:00.170Z,98800.09
2023-01-02T02:59:28.343Z,98794.56
2023-01-02T03:01:55.248Z,98795.84
2023-01-02T03:04:23.131Z,98788.81
2023-01-02T03:07:20.422Z,98796.66
2023-01-02T03:10:00.479Z,98794.75
2023-01-02T03:12:36.526Z,98796.00
2023-01-02T03:15:24.476Z,98797.72
2023-01-02T03:18:18.005Z,98799.63
2023-01-02T03:20:49.788Z,98796.13
2023-01-02T03:23:24.127Z,98790.69
2023-01-02T03:25:52.184Z,98794.19
2023-01-02T03:28:22.091Z,98787.47
2023-01-02T03:30:52.627Z,98801.06
2023-01-02T03:33:26.044Z,98800.13
2023-01-02T03:35:56.727Z,98800.44
2023-01-02T03:38:39.392Z,98800.25
2023-01-02T03:41:15.454Z,98794.03
2023-01-02T03:43:48.939Z,98793.69
2023-01-02T03:46:27.405Z,98799.47
2023-01-02T03:49:05.066Z,98809.84
2023-01-02T03:51:32.401Z,98798.97
2023-01-02T03:54:00.447Z,98801.50
2023-01-02T03:57:01.330Z,98794.78
2023-01-02T03:59:34.008Z,98794.59
2023-01-02T04:02:36.748Z,98800.47
2023-01-02T04:05:10.673Z,98803.31
2023-01-02T04:07:40.721Z,98795.97
2023-01-02T04:10:11.167Z,98791.63
2023-01-02T04:12:40.341Z,98787.00
2023-01-02T04:15:09.991Z,98791.34
2023-01-02T04:17:56.315Z,98794.19
2023-01-02T04:20:30.148Z,98788.53
2023-01-02T04:23:13.853Z,98795.28
2023-01-02T04:25:50.162Z,98791.94
2023-01-02T04:28:32.065Z,98792.44
2023-01-02T04:31:13.134Z,98785.09
2023-01-02T04:33:50.812Z,98779.97
2023-01-02T04:36:17.967Z,98782.00
2023-01-02T04:38:46.005Z,98780.84
2023-01-02T04:41:27.427Z,98778.22
2023-01-02T04:43:55.491Z,98779.00
2023-01-02T04:46:24.094Z,98773.41
2023-01-02T04:48:51.460Z,98773.91
2023-01-02T04:51:18.790Z,98773.56
2023-01-02T04:53:53.014Z,98776.78
2023-01-02T04:56:20.732Z,98778.38
2023-01-02T04:58:47.960Z,98787.38
2023-01-02T05:01:17.838Z,98786.44
2023-01-02T05:03:47.869Z,98781.00
2023-01-02T05:06:15.694Z,98781.63
2023-01-02T05:08:42.637Z,98780.31
2023-01-02T05:11:12.173Z,98777.88
2023-01-02T05:13:41.691Z,98788.47
2023-01-02T05:16:09.104Z,98794.69
2023-01-02T05:18:36.220Z,98794.19
2023-01-02T05:21:05.219Z,98794.63
2023-01-02T05:23:50.207Z,98806.06
2023-01-02T05:26:17.949Z,98804.84
2023-01-02T05:28:45.517Z,98807.06
2023-01-02T05:31:12.809Z,98803.06
2023-01-02T05:33:39.638Z,98808.78
2023-01-02T05:36:08.200Z,98795.31
2023-01-02T05:38:36.156Z,98806.31
2023-01-02T05:41:04.460Z,98801.09
2023-01-02T05:43:32.824Z,98811.28
2023-01-02T05:46:09.212Z,98806.97
2023-01-02T05:48:36.292Z,98808.41
2023-01-02T05:51:07.835Z,98812.19
2023-01-02T05:53:35.060Z,98814.41
2023-01-02T05:56:05.973Z,98811.19
2023-01-02T05:58:38.240Z,98822.16
2023-01-02T06:01:13.252Z,98823.84
2023-01-02T06:03:40.374Z,98822.25
2023-01-02T06:06:09.394Z,98826.06
2023-01-02T06:08:37.218Z,98835.88
2023-01-02T06:11:05.476Z,98822.81
2023-01-02T06:13:34.260Z,98826.44
2023-01-02T06:16:02.687Z,98827.03
2023-01-02T06:18:31.807Z,98828.47
2023-01-02T06:21:03.891Z,98830.75
2023-01-02T06:23:30.872Z,98832.22
2023-01-02T06:26:09.051Z,98833.31
2023-01-02T06:28:35.904Z,98829.66
2023-01-02T06:31:05.681Z,98842.28
2023-01-02T06:33:33.139Z,98844.75
2023-01-02T06:36:01.605Z,98848.28
2023-01-02T06:38:28.704Z,98845.13
2023-01-02T06:40:58.027Z,98844.09
2023-01-02T06:43:25.738Z,98853.34
2023-01-02T06:45:52.870Z,98866.94
2023-01-02T06:48:19.839Z,98856.25
2023-01-02T06:50:46.602Z,98862.03
2023-01-02T06:53:13.786Z,98865.63
2023-01-02T06:55:40.615Z,98868.66
2023-01-02T06:58:12.247Z,98866.78
2023-01-02T07:00:41.568Z,98874.38
2023-01-02T07:03:08.344Z,98877.94
2023-01-02T07:05:35.071Z,98875.53
2023-01-02T07:08:01.871Z,98874.22
2023-01-02T07:10:28.614Z,98872.09
2023-01-02T07:12:55.373Z,98872.09
2023-01-02T07:15:22.197Z,98873.63
2023-01-02T07:17:48.978Z,98873.34
2023-01-02T07:20:16.159Z,98889.09
2023-01-02T07:22:43.061Z,98889.81
2023-01-02T07:25:10.002Z,98896.63
2023-01-02T07:27:36.740Z,98892.44
2023-01-02T07:30:03.978Z,98887.81
2023-01-02T07:32:30.739Z,98898.63
2023-01-02T07:34:57.560Z,98913.00
2023-01-02T07:37:24.371Z,98907.84
2023-01-02T07:39:51.236Z,98904.72
2023-01-02T07:42:17.943Z,98901.78
2023-01-02T07:44:44.752Z,98907.72
2023-01-02T07:47:12.152Z,98905.53
2023-01-02T07:49:38.934Z,98911.47
2023-01-02T07:52:09.385Z,98912.50
2023-01-02T07:54:36.283Z,98924.91
2023-01-02T07:57:03.774Z,98920.53
2023-01-02T07:59:30.554Z,98924.03
2023-01-02T08:01:57.372Z,98928.59
2023-01-02T08:04:24.181Z,98931.81
2023-01-02T08:06:50.942Z,98930.41
2023-01-02T08:09:17.716Z,98924.50
2023-01-02T08:11:44.475Z,98928.88
2023-01-02T08:14:11.193Z,98931.31
2023-01-02T08:16:38.019Z,98935.94
2023-01-02T08:19:05.082Z,98944.38
2023-01-02T08:21:31.926Z,98941.66
2023-01-02T08:23:58.672Z,98948.38
2023-01-02T08:26:25.623Z,98959.47
2023-01-02T08:28:52.533Z,98961.81
2023-01-02T08:31:21.992Z,98964.19
2023-01-02T08:33:49.014Z,98966.84
2023-01-02T08:36:15.929Z,98971.38
2023-01-02T08:38:43.133Z,98971.56
2023-01-02T08:41:10.226Z,98959.31
2023-01-02T08:43:37.527Z,98959.63
2023-01-02T08:46:09.685Z,98963.94
2023-01-02T08:48:37.047Z,98956.34
2023-01-02T08:51:05.204Z,98962.78
2023-01-02T08:53:32.487Z,98967.13
2023-01-02T08:56:25.827Z,98974.34
2023-01-02T08:58:55.382Z,98981.63
2023-01-02T09:01:24.281Z,98985.03
2023-01-02T09:03:52.128Z,98994.31
2023-01-02T09:06:22.219Z,98987.16
2023-01-02T09:08:52.396Z,98991.41
2023-01-02T09:11:25.711Z,99007.47
2023-01-02T09:13:53.748Z,99007.72
2023-01-02T09:16:20.639Z,99015.63
2023-01-02T09:18:47.910Z,99015.88
2023-01-02T09:21:14.777Z,99004.50
2023-01-02T09:23:41.924Z,99021.94
2023-01-02T09:26:10.145Z,99015.78
2023-01-02T09:28:37.119Z,99018.22
2023-01-02T09:31:11.873Z,99034.63
2023-01-02T09:33:40.813Z,99026.25
2023-01-02T09:36:09.696Z,99027.38
2023-01-02T09:38:36.847Z,99030.50
2023-01-02T09:41:13.797Z,99034.44
2023-01-02T09:43:46.524Z,99052.63
2023-01-02T09:46:33.379Z,99054.75
2023-01-02T09:49:02.368Z,99055.25
2023-01-02T09:51:30.901Z,99060.78
2023-01-02T09:54:00.919Z,99052.94
2023-01-02T09:56:35.137Z,99057.47
2023-01-02T09:59:17.381Z,99055.66
2023-01-02T10:01:57.444Z,99058.69
2023-01-02T10:04:33.460Z,99059.25
2023-01-02T10:07:12.555Z,99060.31
2023-01-02T10:09:49.625Z,99069.41
2023-01-02T10:12:35.572Z,99071.03
2023-01-02T10:15:06.904Z,99063.88
2023-01-02T10:17:39.435Z,99070.31
2023-01-02T10:20:28.450Z,99065.06
2023-01-02T10:23:03.806Z,99071.38
2023-01-02T10:25:39.025Z,99073.00
2023-01-02T10:28:36.207Z,99063.28
2023-01-02T10:31:11.044Z,99061.47
2023-01-02T10:33:50.690Z,99054.38
2023-01-02T10:36:34.833Z,99059.66
2023-01-02T10:39:17.284Z,99057.78
2023-01-02T10:41:50.662Z,99051.28
2023-01-02T10:44:25.423Z,99047.81
2023-01-02T10:46:52.848Z,99053.97
2023-01-02T10:49:20.880Z,99053.38
2023-01-02T10:52:07.403Z,99061.38
2023-01-02T10:54:58.936Z,99054.47
2023-01-02T10:57:38.343Z,99052.53
2023-01-02T11:00:08.264Z,99066.16
2023-01-02T11:02:43.439Z,99055.88
2023-01-02T11:05:22.352Z,99064.53
2023-01-02T11:07:51.006Z,99066.66
2023-01-02T11:10:32.621Z,99065.84
2023-01-02T11:13:04.422Z,99056.16
2023-01-02T11:15:34.761Z,99056.94
2023-01-02T11:18:16.371Z,99065.16
2023-01-02T11:20:50.096Z,99066.75
2023-01-02T11:23:17.018Z,99061.28
2023-01-02T11:25:44.925Z,99048.91
2023-01-02T11:28:23.696Z,99063.84
2023-01-02T11:31:00.090Z,99076.56
2023-01-02T11:33:30.638Z,99070.56
2023-01-02T11:36:03.326Z,99067.50
2023-01-02T11:38:52.452Z,99068.47
2023-01-02T11:42:11.766Z,99069.72
2023-01-02T11:44:52.706Z,99064.88
2023-01-02T11:47:42.778Z,99072.28
2023-01-02T11:50:21.787Z,99057.63
2023-01-02T11:52:59.188Z,99057.94
2023-01-02T11:56:13.234Z,99057.81
2023-01-02T11:58:54.779Z,99053.47
2023-01-02T12:01:42.856Z,99059.06
2023-01-02T12:04:10.850Z,99049.44
2023-01-02T12:06:48.418Z,99051.22
2023-01-02T12:09:32.236Z,99051.91
2023-01-02T12:12:15.684Z,99049.03
2023-01-02T12:15:11.173Z,99050.28
2023-01-02T12:17:44.090Z,99055.47
2023-01-02T12:20:17.189Z,99061.59
2023-01-02T12:23:22.072Z,99051.91
2023-01-02T12:26:12.101Z,99062.22
2023-01-02T12:28:57.859Z,99072.53
2023-01-02T12:31:54.546Z,99087.31
2023-01-02T12:34:46.317Z,99092.13
2023-01-02T12:37:22.401Z,99083.75
2023-01-02T12:40:01.426Z,99092.56
2023-01-02T12:43:16.432Z,99088.69
2023-01-02T12:45:55.615Z,99090.81
2023-01-02T12:48:50.456Z,99075.38
2023-01-02T12:51:36.206Z,99084.28
2023-01-02T12:54:24.987Z,99080.13
2023-01-02T12:57:26.363Z,99080.59
2023-01-02T13:00:21.661Z,99082.19
2023-01-02T13:03:07.222Z,99085.72
2023-01-02T13:05:42.850Z,99085.88
2023-01-02T13:08:53.011Z,99093.75
2023-01-02T13:12:02.157Z,99094.09
2023-01-02T13:14:43.656Z,99107.59
2023-01-02T13:17:56.685Z,99103.13
2023-01-02T13:20:38.887Z,99105.06
2023-01-02T13:23:11.841Z,99109.09
2023-01-02T13:25:48.682Z,99118.91
2023-01-02T13:28:17.397Z,99122.13
2023-01-02T13:31:19.104Z,99130.16
2023-01-02T13:33:49.500Z,99125.31
2023-01-02T13:36:24.145Z,99123.09
2023-01-02T13:39:32.814Z,99132.09
2023-01-02T13:42:21.207Z,99134.00
2023-01-02T13:44:54.814Z,99134.47
2023-01-02T13:47:39.270Z,99144.75
2023-01-02T13:50:17.139Z,99150.63
2023-01-02T13:53:19.506Z,99152.09
2023-01-02T13:56:09.971Z,99152.25
2023-01-02T13:58:44.118Z,99166.00
2023-01-02T14:01:29.600Z,99169.22
2023-01-02T14:04:13.088Z,99172.72
2023-01-02T14:06:41.072Z,99167.91
2023-01-02T14:09:12.148Z,99171.06
2023-01-02T14:11:55.601Z,99171.69
2023-01-02T14:14:47.744Z,99176.00
2023-01-02T14:17:30.667Z,99176.44
2023-01-02T14:20:30.618Z,99175.31
2023-01-02T14:23:09.503Z,99180.06
2023-01-02T14:25:48.760Z,99184.84
2023-01-02T14:28:31.425Z,99196.81
2023-01-02T14:30:58.482Z,99205.13
2023-01-02T14:33:34.600Z,99207.16
2023-01-02T14:36:14.969Z,99213.06
2023-01-02T14:38:56.362Z,99223.28
2023-01-02T14:42:10.094Z,99225.00
2023-01-02T14:44:43.497Z,99234.25
2023-01-02T14:47:21.569Z,99228.38
2023-01-02T14:49:57.319Z,99228.00
2023-01-02T14:52:32.787Z,99238.47
2023-01-02T14:55:16.000Z,99229.31
2023-01-02T14:57:48.317Z,99235.97
2023-01-02T15:00:22.927Z,99240.13
2023-01-02T15:02:56.262Z,99243.97
2023-01-02T15:05:51.680Z,99251.44
2023-01-02T15:08:41.905Z,99245.81
2023-01-02T15:11:42.323Z,99238.53
2023-01-02T15:14:18.953Z,99238.63
2023-01-02T15:16:58.272Z,99236.53
2023-01-02T15:19:28.999Z,99238.25
2023-01-02T15:21:56.316Z,99228.88
2023-01-02T15:24:26.448Z,99230.38
2023-01-02T15:26:53.805Z,99236.16
2023-01-02T15:29:28.214Z,99235.31
2023-01-02T15:31:57.862Z,99239.38
2023-01-02T15:34:33.681Z,99244.50
2023-01-02T15:37:05.085Z,99237.94
2023-01-02T15:39:44.146Z,99243.88
2023-01-02T15:42:36.034Z,99238.94
2023-01-02T15:45:14.001Z,99231.91
2023-01-02T15:47:47.780Z,99242.00
2023-01-02T15:50:26.811Z,99244.50
2023-01-02T15:53:02.960Z,99257.00
2023-01-02T15:55:35.147Z,99256.19
2023-01-02T15:58:18.579Z,99261.34
2023-01-02T16:00:48.013Z,99267.59
2023-01-02T16:04:00.328Z,99266.16
2023-01-02T16:06:31.073Z,99272.94
2023-01-02T16:09:00.066Z,99272.63
2023-01-02T16:11:27.451Z,99280.78
2023-01-02T16:14:20.540Z,99293.59
2023-01-02T16:17:04.723Z,99297.13
2023-01-02T16:19:35.839Z,99297.94
2023-01-02T16:22:27.431Z,99300.66
2023-01-02T16:24:59.907Z,99312.94
2023-01-02T16:27:32.482Z,99321.72
2023-01-02T16:29:59.588Z,99334.03
2023-01-02T16:32:30.512Z,99333.22
2023-01-02T16:35:01.830Z,99347.94
2023-01-02T16:37:34.803Z,99347.94
2023-01-02T16:40:59.113Z,99354.19
2023-01-02T16:43:12.170Z,99354.19
2023-01-02T16:45:39.738Z,99362.63
2023-01-02T16:48:15.415Z,99370.28
2023-01-02T16:50:45.819Z,99377.94
2023-01-02T16:53:19.687Z,99390.81
2023-01-02T16:55:46.786Z,99394.66
2023-01-02T16:58:13.689Z,99393.94
2023-01-02T17:00:43.586Z,99416.00
2023-01-02T17:03:16.489Z,99422.84
2023-01-02T17:06:01.445Z,99448.22
2023-01-02T17:08:32.627Z,99457.94
2023-01-02T17:11:00.902Z,99463.81
2023-01-02T17:13:28.453Z,99460.72
2023-01-02T17:15:56.414Z,99470.66
2023-01-02T17:18:23.910Z,99465.38
2023-01-02T17:20:51.917Z,99460.28
2023-01-02T17:23:19.613Z,99466.66
2023-01-02T17:25:46.900Z,99477.28
2023-01-02T17:28:16.448Z,99475.44
2023-01-02T17:30:45.368Z,99483.28
2023-01-02T17:33:15.015Z,99486.38
2023-01-02T17:35:41.961Z,99498.66
2023-01-02T17:38:09.237Z,99499.81
2023-01-02T17:40:40.662Z,99512.88
2023-01-02T17:43:24.780Z,99516.72
2023-01-02T17:45:57.759Z,99528.44
2023-01-02T17:48:28.203Z,99534.75
2023-01-02T17:50:55.226Z,99531.50
2023-01-02T17:53:24.545Z,99536.97
2023-01-02T17:56:20.638Z,99537.25
2023-01-02T17:58:53.880Z,99548.63
2023-01-02T18:01:27.353Z,99558.13
2023-01-02T18:04:01.662Z,99565.22
2023-01-02T18:06:34.140Z,99567.41
2023-01-02T18:09:01.425Z,99571.75
2023-01-02T18:11:30.496Z,99578.84
2023-01-02T18:14:03.201Z,99588.34
2023-01-02T18:16:44.490Z,99600.03
2023-01-02T18:19:18.615Z,99596.25
2023-01-02T18:21:45.503Z,99614.19
2023-01-02T18:24:16.037Z,99616.16
2023-01-02T18:26:42.928Z,99619.72
2023-01-02T18:29:22.480Z,99605.09
2023-01-02T18:31:51.378Z,99618.09
2023-01-02T18:34:47.704Z,99623.28
2023-01-02T18:37:22.972Z,99614.38
2023-01-02T18:39:51.168Z,99616.56
2023-01-02T18:42:33.547Z,99608.19
2023-01-02T18:45:16.680Z,99612.22
2023-01-02T18:47:46.002Z,99615.22
2023-01-02T18:50:15.773Z,99600.03
2023-01-02T18:52:49.782Z,99620.91
2023-01-02T18:55:29.018Z,99613.84
2023-01-02T18:58:11.697Z,99621.19
2023-01-02T19:00:39.501Z,99623.63
2023-01-02T19:03:26.760Z,99627.41
2023-01-02T19:05:54.454Z,99622.53
2023-01-02T19:08:34.273Z,99623.09
2023-01-02T19:11:22.347Z,99625.50
2023-01-02T19:13:58.620Z,99631.19
2023-01-02T19:16:34.265Z,99637.72
2023-01-02T19:19:17.811Z,99651.28
2023-01-02T19:21:45.051Z,99648.59
2023-01-02T19:24:18.818Z,99654.03
2023-01-02T19:26:49.390Z,99664.88
2023-01-02T19:29:25.745Z,99661.94
2023-01-02T19:32:04.037Z,99679.28
2023-01-02T19:34:38.720Z,99680.63
2023-01-02T19:37:41.151Z,99688.75
2023-01-02T19:40:33.756Z,99692.84
2023-01-02T19:43:01.302Z,99690.38
2023-01-02T19:45:29.324Z,99687.94
2023-01-02T19:47:59.357Z,99674.91
2023-01-02T19:50:34.469Z,99680.91
2023-01-02T19:53:23.422Z,99683.63
2023-01-02T19:55:52.928Z,99684.97
2023-01-02T19:58:24.708Z,99687.44
2023-01-02T20:00:51.446Z,99687.16
2023-01-02T20:03:18.629Z,99680.94
2023-01-02T20:05:45.647Z,99687.69
2023-01-02T20:08:12.573Z,99680.38
2023-01-02T20:10:39.900Z,99685.53
2023-01-02T20:13:08.070Z,99676.84
2023-01-02T20:15:34.975Z,99684.97
2023-01-02T20:18:08.383Z,99675.22
2023-01-02T20:20:38.020Z,99682.25
2023-01-02T20:23:05.011Z,99684.44
2023-01-02T20:25:31.829Z,99698.28
2023-01-02T20:28:03.405Z,99692.88
2023-01-02T20:30:30.282Z,99695.28
2023-01-02T20:32:57.172Z,99700.72
2023-01-02T20:35:25.653Z,99694.22
2023-01-02T20:37:52.659Z,99702.34
2023-01-02T20:40:19.820Z,99703.44
2023-01-02T20:42:55.786Z,99695.28
2023-01-02T20:45:22.623Z,99709.69
2023-01-02T20:47:49.674Z,99700.19
2023-01-02T20:50:19.671Z,99703.44
2023-01-02T20:52:46.645Z,99702.88
2023-01-02T20:55:14.688Z,99708.84
2023-01-02T20:57:46.025Z,99720.53
2023-01-02T21:00:21.163Z,99727.84
2023-01-02T21:02:51.842Z,99721.34
2023-01-02T21:05:18.863Z,99723.25
2023-01-02T21:07:45.766Z,99729.50
2023-01-02T21:10:12.624Z,99750.91
2023-01-02T21:12:58.093Z,99757.97
2023-01-02T21:15:45.340Z,99762.88
2023-01-02T21:18:17.322Z,99765.84
2023-01-02T21:20:46.986Z,99763.66
2023-01-02T21:23:14.726Z,99763.13
2023-01-02T21:25:42.985Z,99769.91
2023-01-02T21:28:12.367Z,99787.50
2023-01-02T21:30:42.176Z,99789.69
2023-01-02T21:33:19.699Z,99787.50
2023-01-02T21:35:50.015Z,99779.94
2023-01-02T21:38:20.820Z,99779.38
2023-01-02T21:40:48.072Z,99773.41
2023-01-02T21:43:15.496Z,99785.88
2023-01-02T21:45:42.578Z,99788.59
2023-01-02T21:48:09.508Z,99781.56
2023-01-02T21:50:36.450Z,99785.63
2023-01-02T21:53:03.711Z,99792.69
2023-01-02T21:55:30.588Z,99789.69
2023-01-02T21:58:13.031Z,99799.97
2023-01-02T22:00:40.776Z,99805.16
2023-01-02T22:03:07.912Z,99800.53
2023-01-02T22:05:35.027Z,99800.28
2023-01-02T22:08:01.849Z,99804.59
2023-01-02T22:10:28.759Z,99806.25
2023-01-02T22:12:56.015Z,99805.41
2023-01-02T22:15:23.084Z,99810.28
2023-01-02T22:17:49.992Z,99826.53
2023-01-02T22:20:16.914Z,99826.00
2023-01-02T22:22:43.691Z,99822.50
2023-01-02T22:25:10.883Z,99821.38
2023-01-02T22:27:38.104Z,99816.50
2023-01-02T22:30:27.203Z,99828.41
2023-01-02T22:32:52.717Z,99832.50
2023-01-02T22:35:19.623Z,99832.75
2023-01-02T22:37:46.600Z,99845.75
2023-01-02T22:40:13.467Z,99853.34
2023-01-02T22:43:04.893Z,99836.56
2023-01-02T22:45:43.787Z,99831.41
2023-01-02T22:48:26.590Z,99818.94
2023-01-02T22:50:58.477Z,99822.19
2023-01-02T22:53:37.213Z,99817.31
2023-01-02T22:56:16.225Z,99807.81
2023-01-02T22:58:43.316Z,99826.25
2023-01-02T23:01:18.307Z,99827.63
2023-01-02T23:03:46.921Z,99826.25
2023-01-02T23:06:21.583Z,99830.88
2023-01-02T23:08:49.393Z,99831.13
2023-01-02T23:11:16.736Z,99832.75
2023-01-02T23:13:43.858Z,99833.56
2023-01-02T23:16:29.732Z,99826.53
2023-01-02T23:19:15.294Z,99830.31
2023-01-02T23:21:44.372Z,99843.03
2023-01-02T23:24:13.135Z,99853.59
2023-01-02T23:26:49.301Z,99858.47
2023-01-02T23:29:20.829Z,99848.72
2023-01-02T23:31:49.323Z,99851.97
2023-01-02T23:34:19.377Z,99863.59
2023-01-02T23:36:46.570Z,99858.69
2023-01-02T23:39:15.819Z,99861.41
2023-01-02T23:41:43.871Z,99860.06
2023-01-02T23:44:12.112Z,99847.06
2023-01-02T23:46:40.177Z,99847.31
2023-01-02T23:49:08.426Z,99859.22
2023-01-02T23:51:35.574Z,99852.19
2023-01-02T23:54:02.867Z,99862.22
2023-01-02T23:56:33.506Z,99875.47
2023-01-02T23:59:02.178Z,99876.31
